createdAt,value
2018-09-21T00:01:49.835Z,6.90
2018-09-21T00:04:18.335Z,9.57
2018-09-21T00:06:46.715Z,6.30
2018-09-21T00:09:15.340Z,8.47
2018-09-21T00:11:43.727Z,7.97
2018-09-21T00:14:12.184Z,8.70
2018-09-21T00:16:40.647Z,12.17
2018-09-21T00:19:09.135Z,10.00
2018-09-21T00:21:37.587Z,6.90
2018-09-21T00:24:06.075Z,9.13
2018-09-21T00:26:34.514Z,6.37
2018-09-21T00:29:03.045Z,7.63
2018-09-21T00:31:31.526Z,7.00
2018-09-21T00:34:00.028Z,11.07
2018-09-21T00:36:28.536Z,8.63
2018-09-21T00:38:56.975Z,14.90
2018-09-21T00:41:25.491Z,7.20
2018-09-21T00:43:53.995Z,7.90
2018-09-21T00:46:22.435Z,7.83
2018-09-21T00:48:50.915Z,8.90
2018-09-21T00:51:19.391Z,7.20
2018-09-21T00:53:48.135Z,6.33
2018-09-21T00:56:16.784Z,6.70
2018-09-21T00:58:45.294Z,7.50
2018-09-21T01:01:13.786Z,9.10
2018-09-21T01:03:42.235Z,8.63
2018-09-21T01:06:10.759Z,9.40
2018-09-21T01:08:39.266Z,8.00
2018-09-21T01:11:07.725Z,15.60
2018-09-21T01:13:36.222Z,12.23
2018-09-21T01:16:04.780Z,10.53
2018-09-21T01:18:33.215Z,7.07
2018-09-21T01:21:01.695Z,7.70
2018-09-21T01:23:30.119Z,8.20
2018-09-21T01:25:58.606Z,7.03
2018-09-21T01:28:27.084Z,10.97
2018-09-21T01:30:55.545Z,10.30
2018-09-21T01:33:24.015Z,24.20
2018-09-21T01:35:52.487Z,10.20
2018-09-21T01:38:21.083Z,10.80
2018-09-21T01:40:49.511Z,11.33
2018-09-21T01:43:17.939Z,6.57
2018-09-21T01:45:46.490Z,6.73
2018-09-21T01:48:14.914Z,11.07
2018-09-21T01:50:43.572Z,8.30
2018-09-21T01:53:12.047Z,11.03
2018-09-21T01:55:40.478Z,8.60
2018-09-21T01:58:09.135Z,8.43
2018-09-21T02:00:37.551Z,9.97
2018-09-21T02:03:06.034Z,11.33
2018-09-21T02:05:34.449Z,9.27
2018-09-21T02:08:02.914Z,13.47
2018-09-21T02:10:31.371Z,9.70
2018-09-21T02:13:00.067Z,11.23
2018-09-21T02:15:28.622Z,7.70
2018-09-21T02:17:57.051Z,10.57
2018-09-21T02:20:25.538Z,9.67
2018-09-21T02:22:53.981Z,8.23
2018-09-21T02:25:22.449Z,20.60
2018-09-21T02:27:51.031Z,8.47
2018-09-21T02:30:19.500Z,8.17
2018-09-21T02:32:47.994Z,8.13
2018-09-21T02:35:16.503Z,12.63
2018-09-21T02:37:44.979Z,8.97
2018-09-21T02:40:13.451Z,10.03
2018-09-21T02:42:41.879Z,11.00
2018-09-21T02:45:10.427Z,10.57
2018-09-21T02:47:38.899Z,13.03
2018-09-21T02:50:07.375Z,15.20
2018-09-21T02:52:36.075Z,13.67
2018-09-21T02:55:04.707Z,12.03
2018-09-21T02:57:33.330Z,15.13
2018-09-21T03:00:01.896Z,14.20
2018-09-21T03:02:30.303Z,11.80
2018-09-21T03:04:58.907Z,14.10
2018-09-21T03:07:27.342Z,10.67
2018-09-21T03:09:56.091Z,9.50
2018-09-21T03:12:24.583Z,11.53
2018-09-21T03:14:53.058Z,13.17
2018-09-21T03:17:21.508Z,8.93
2018-09-21T03:19:50.007Z,15.90
2018-09-21T03:22:18.406Z,9.67
2018-09-21T03:24:46.903Z,8.57
2018-09-21T03:27:15.400Z,10.87
2018-09-21T03:29:43.963Z,15.57
2018-09-21T03:32:12.379Z,16.40
2018-09-21T03:34:40.885Z,8.13
2018-09-21T03:37:09.355Z,8.43
2018-09-21T03:39:37.875Z,12.17
2018-09-21T03:42:06.369Z,8.13
2018-09-21T03:44:34.859Z,8.70
2018-09-21T03:47:03.300Z,8.77
2018-09-21T03:49:31.832Z,7.47
2018-09-21T03:52:01.402Z,12.33
2018-09-21T03:54:29.899Z,8.23
2018-09-21T03:56:58.295Z,10.70
2018-09-21T03:59:26.799Z,7.50
2018-09-21T04:01:55.259Z,8.03
2018-09-21T04:04:23.695Z,7.97
2018-09-21T04:06:52.254Z,9.70
2018-09-21T04:09:20.726Z,8.37
2018-09-21T04:11:49.316Z,9.10
2018-09-21T04:14:17.791Z,8.93
2018-09-21T04:16:46.307Z,14.13
2018-09-21T04:19:14.791Z,8.87
2018-09-21T04:21:43.352Z,12.13
2018-09-21T04:24:11.759Z,9.47
2018-09-21T04:26:40.194Z,8.17
2018-09-21T04:29:08.684Z,9.47
2018-09-21T04:31:37.270Z,9.60
2018-09-21T04:34:05.747Z,9.47
2018-09-21T04:36:34.310Z,9.10
2018-09-21T04:39:02.845Z,17.33
2018-09-21T04:41:31.339Z,14.43
2018-09-21T04:43:59.814Z,11.43
2018-09-21T04:46:28.223Z,9.63
2018-09-21T04:48:56.637Z,13.67
2018-09-21T04:51:25.247Z,12.37
2018-09-21T04:53:53.739Z,16.60
2018-09-21T04:56:22.323Z,11.00
2018-09-21T04:58:50.806Z,12.10
2018-09-21T05:01:19.403Z,8.30
2018-09-21T05:03:47.943Z,9.40
2018-09-21T05:06:16.432Z,13.33
2018-09-21T05:08:44.934Z,10.33
2018-09-21T05:11:13.454Z,13.50
2018-09-21T05:13:41.975Z,11.77
2018-09-21T05:16:10.830Z,12.03
2018-09-21T05:18:39.255Z,9.13
2018-09-21T05:21:07.707Z,12.13
2018-09-21T05:23:36.094Z,10.03
2018-09-21T05:26:04.615Z,14.93
2018-09-21T05:28:33.068Z,8.90
2018-09-21T05:31:01.563Z,9.93
2018-09-21T05:33:29.962Z,12.40
2018-09-21T05:35:58.570Z,9.80
2018-09-21T05:38:27.107Z,8.83
2018-09-21T05:40:55.637Z,9.00
2018-09-21T05:43:24.147Z,12.23
2018-09-21T05:45:52.725Z,8.13
2018-09-21T05:48:21.124Z,12.50
2018-09-21T05:50:49.847Z,9.10
2018-09-21T05:53:18.408Z,10.37
2018-09-21T05:55:46.803Z,10.53
2018-09-21T05:58:15.423Z,13.40
2018-09-21T06:00:43.919Z,11.50
2018-09-21T06:03:12.347Z,9.90
2018-09-21T06:05:40.799Z,13.33
2018-09-21T06:08:09.305Z,12.23
2018-09-21T06:10:37.779Z,8.67
2018-09-21T06:13:06.271Z,9.00
2018-09-21T06:15:34.692Z,12.90
2018-09-21T06:18:03.111Z,10.20
2018-09-21T06:20:31.671Z,13.63
2018-09-21T06:23:00.104Z,8.27
2018-09-21T06:25:28.645Z,14.37
2018-09-21T06:27:57.179Z,11.33
2018-09-21T06:30:25.667Z,12.10
2018-09-21T06:32:54.259Z,15.00
2018-09-21T06:35:23.055Z,9.83
2018-09-21T06:37:51.534Z,13.90
2018-09-21T06:40:20.007Z,21.03
2018-09-21T06:42:48.871Z,13.63
2018-09-21T06:45:17.406Z,15.57
2018-09-21T06:47:45.859Z,15.07
2018-09-21T06:50:14.291Z,15.43
2018-09-21T06:52:42.747Z,14.37
2018-09-21T06:55:11.311Z,20.63
2018-09-21T06:57:39.812Z,14.30
2018-09-21T07:00:08.336Z,19.23
2018-09-21T07:02:36.830Z,24.07
2018-09-21T07:05:13.199Z,13.23
2018-09-21T07:07:42.075Z,17.23
2018-09-21T07:10:10.843Z,10.80
2018-09-21T07:12:39.473Z,18.53
2018-09-21T07:15:08.549Z,17.50
2018-09-21T07:17:37.096Z,20.97
2018-09-21T07:20:05.648Z,14.13
2018-09-21T07:22:34.647Z,11.43
2018-09-21T07:25:03.443Z,10.67
2018-09-21T07:27:32.183Z,26.27
2018-09-21T07:30:00.688Z,14.47
2018-09-21T07:32:29.267Z,11.40
2018-09-21T07:34:57.740Z,15.60
2018-09-21T07:37:26.445Z,16.03
2018-09-21T07:39:54.879Z,22.07
2018-09-21T07:42:23.343Z,13.43
2018-09-21T07:44:51.866Z,10.63
2018-09-21T07:47:20.554Z,10.03
2018-09-21T07:49:49.030Z,12.03
2018-09-21T07:52:17.679Z,7.00
2018-09-21T07:54:46.215Z,7.47
2018-09-21T07:57:14.706Z,10.60
2018-09-21T07:59:43.100Z,7.83
2018-09-21T08:02:11.537Z,18.13
2018-09-21T08:04:40.140Z,10.03
2018-09-21T08:07:08.942Z,9.83
2018-09-21T08:09:37.423Z,10.50
2018-09-21T08:12:05.955Z,15.10
2018-09-21T08:14:34.363Z,9.80
2018-09-21T08:17:02.923Z,7.17
2018-09-21T08:19:32.359Z,9.00
2018-09-21T08:22:00.715Z,6.40
2018-09-21T08:24:29.175Z,8.43
2018-09-21T08:26:57.772Z,10.53
2018-09-21T08:29:26.212Z,7.67
2018-09-21T08:31:54.872Z,13.30
2018-09-21T08:34:23.359Z,16.87
2018-09-21T08:36:51.818Z,6.97
2018-09-21T08:39:20.303Z,12.33
2018-09-21T08:41:48.891Z,8.83
2018-09-21T08:44:17.390Z,8.23
2018-09-21T08:46:45.859Z,13.63
2018-09-21T08:49:14.627Z,11.60
2018-09-21T08:51:43.031Z,6.23
2018-09-21T08:54:11.547Z,16.10
2018-09-21T08:56:40.046Z,9.63
2018-09-21T08:59:08.527Z,6.20
2018-09-21T09:01:37.027Z,11.23
2018-09-21T09:04:05.855Z,19.23
2018-09-21T09:06:34.333Z,12.97
2018-09-21T09:09:02.843Z,8.57
2018-09-21T09:11:31.433Z,14.07
2018-09-21T09:13:59.931Z,19.27
2018-09-21T09:16:28.327Z,6.73
2018-09-21T09:18:56.827Z,11.13
2018-09-21T09:21:25.427Z,11.43
2018-09-21T09:23:54.020Z,21.50
2018-09-21T09:26:22.448Z,16.13
2018-09-21T09:28:50.867Z,5.50
2018-09-21T09:31:19.390Z,42.07
2018-09-21T09:33:48.231Z,20.33
2018-09-21T09:36:16.659Z,8.43
2018-09-21T09:38:45.318Z,9.53
2018-09-21T09:41:13.883Z,8.17
2018-09-21T09:43:42.463Z,8.13
2018-09-21T09:46:10.931Z,10.40
2018-09-21T09:48:39.540Z,3.87
2018-09-21T09:51:08.019Z,12.33
2018-09-21T09:53:36.462Z,4.83
2018-09-21T09:56:04.937Z,3.40
2018-09-21T09:58:33.366Z,13.33
2018-09-21T10:01:01.827Z,19.83
2018-09-21T10:03:30.293Z,10.00
2018-09-21T10:05:58.732Z,6.37
2018-09-21T10:08:27.190Z,3.30
2018-09-21T10:10:55.674Z,9.57
2018-09-21T10:13:24.119Z,8.50
2018-09-21T10:15:52.576Z,13.83
2018-09-21T10:18:21.010Z,11.27
2018-09-21T10:20:49.533Z,3.47
2018-09-21T10:23:17.931Z,5.50
2018-09-21T10:25:46.434Z,4.10
2018-09-21T10:28:15.104Z,8.53
2018-09-21T10:30:43.462Z,11.63
2018-09-21T10:33:12.000Z,7.57
2018-09-21T10:35:40.586Z,9.93
2018-09-21T10:38:09.023Z,10.00
2018-09-21T10:40:37.767Z,12.93
2018-09-21T10:43:06.271Z,18.77
2018-09-21T10:45:34.693Z,12.57
2018-09-21T10:48:03.258Z,6.40
2018-09-21T10:50:31.838Z,18.10
2018-09-21T10:53:00.275Z,3.50
2018-09-21T10:55:28.835Z,9.83
2018-09-21T10:57:57.307Z,3.67
2018-09-21T11:00:25.696Z,6.83
2018-09-21T11:02:54.315Z,3.90
2018-09-21T11:05:22.759Z,2.40
2018-09-21T11:07:51.221Z,1.93
2018-09-21T11:10:19.651Z,3.40
2018-09-21T11:12:48.127Z,2.70
2018-09-21T11:15:16.551Z,6.60
2018-09-21T11:17:44.999Z,10.23
2018-09-21T11:20:13.415Z,17.50
2018-09-21T11:22:41.821Z,40.97
2018-09-21T11:25:10.239Z,34.50
2018-09-21T11:27:38.684Z,8.23
2018-09-21T11:30:07.187Z,9.63
2018-09-21T11:32:35.609Z,6.00
2018-09-21T11:35:04.115Z,4.07
2018-09-21T11:37:32.607Z,14.60
2018-09-21T11:40:01.011Z,10.97
2018-09-21T11:42:29.554Z,33.00
2018-09-21T11:44:58.044Z,23.53
2018-09-21T11:47:26.513Z,9.70
2018-09-21T11:49:55.003Z,13.37
2018-09-21T11:52:23.503Z,10.43
2018-09-21T11:54:51.986Z,8.93
2018-09-21T11:57:20.511Z,11.77
2018-09-21T11:59:48.939Z,21.67
2018-09-21T12:02:17.404Z,9.10
2018-09-21T12:04:46.012Z,5.13
2018-09-21T12:07:14.422Z,8.43
2018-09-21T12:09:43.042Z,9.93
2018-09-21T12:12:11.461Z,10.23
2018-09-21T12:14:39.882Z,7.93
2018-09-21T12:17:08.589Z,1.90
2018-09-21T12:19:36.923Z,1.80
2018-09-21T12:22:05.551Z,4.27
2018-09-21T12:24:34.257Z,4.80
2018-09-21T12:27:02.755Z,4.00
2018-09-21T12:29:31.175Z,5.90
2018-09-21T12:31:59.691Z,3.10
2018-09-21T12:34:28.315Z,6.93
2018-09-21T12:36:56.724Z,9.33
2018-09-21T12:39:25.387Z,3.20
2018-09-21T12:41:53.820Z,3.77
2018-09-21T12:44:22.288Z,5.57
2018-09-21T12:46:50.887Z,7.33
2018-09-21T12:49:19.316Z,3.27
2018-09-21T12:51:47.711Z,1.77
2018-09-21T12:54:16.230Z,0.93
2018-09-21T12:56:44.771Z,0.57
2018-09-21T12:59:13.186Z,0.60
2018-09-21T13:01:41.839Z,1.60
2018-09-21T13:04:10.443Z,1.77
2018-09-21T13:06:38.983Z,2.20
2018-09-21T13:09:08.850Z,1.27
2018-09-21T13:11:37.347Z,1.10
2018-09-21T13:14:05.858Z,1.23
2018-09-21T13:16:34.554Z,2.77
2018-09-21T13:19:03.010Z,1.50
2018-09-21T13:21:31.466Z,0.80
2018-09-21T13:24:00.111Z,1.30
2018-09-21T13:26:28.534Z,1.60
2018-09-21T13:28:57.046Z,3.83
2018-09-21T13:31:25.815Z,1.40
2018-09-21T13:33:54.308Z,0.97
2018-09-21T13:36:23.550Z,2.83
2018-09-21T13:38:52.203Z,0.70
2018-09-21T13:41:20.892Z,2.40
2018-09-21T13:43:49.335Z,5.07
2018-09-21T13:46:21.500Z,1.47
2018-09-21T13:48:49.907Z,1.47
2018-09-21T13:51:18.328Z,1.63
2018-09-21T13:53:47.063Z,2.70
2018-09-21T13:56:15.543Z,4.07
2018-09-21T13:58:44.115Z,3.40
2018-09-21T14:01:12.581Z,2.53
2018-09-21T14:03:41.059Z,1.17
2018-09-21T14:06:09.531Z,2.50
2018-09-21T14:08:38.263Z,2.13
2018-09-21T14:11:06.739Z,1.50
2018-09-21T14:13:35.282Z,1.73
2018-09-21T14:16:03.760Z,1.43
2018-09-21T14:18:32.259Z,1.37
2018-09-21T14:21:00.804Z,6.00
2018-09-21T14:23:29.336Z,4.90
2018-09-21T14:25:57.858Z,3.47
2018-09-21T14:28:26.415Z,0.97
2018-09-21T14:30:55.040Z,3.40
2018-09-21T14:33:23.511Z,3.00
2018-09-21T14:35:51.971Z,1.90
2018-09-21T14:38:20.461Z,3.90
2018-09-21T14:40:48.994Z,2.70
2018-09-21T14:43:17.505Z,7.03
2018-09-21T14:45:46.000Z,2.17
2018-09-21T14:48:14.440Z,4.03
2018-09-21T14:50:42.924Z,2.63
2018-09-21T14:53:11.466Z,2.00
2018-09-21T14:55:39.963Z,2.13
2018-09-21T14:58:08.487Z,1.77
2018-09-21T15:00:37.317Z,10.83
2018-09-21T15:03:05.852Z,1.50
2018-09-21T15:05:34.594Z,5.07
2018-09-21T15:08:03.884Z,5.97
2018-09-21T15:10:32.403Z,5.93
2018-09-21T15:13:00.802Z,4.33
2018-09-21T15:15:29.415Z,8.77
2018-09-21T15:17:57.951Z,4.20
2018-09-21T15:20:26.423Z,4.43
2018-09-21T15:22:55.096Z,4.17
2018-09-21T15:25:23.656Z,1.80
2018-09-21T15:27:52.139Z,3.90
2018-09-21T15:30:20.639Z,3.40
2018-09-21T15:32:49.073Z,7.60
2018-09-21T15:35:17.640Z,7.57
2018-09-21T15:37:46.262Z,4.10
2018-09-21T15:40:14.813Z,5.83
2018-09-21T15:42:43.361Z,2.90
2018-09-21T15:45:11.834Z,6.10
2018-09-21T15:47:40.412Z,5.10
2018-09-21T15:50:08.959Z,5.87
2018-09-21T15:52:37.646Z,3.90
2018-09-21T15:55:06.184Z,8.37
2018-09-21T15:57:34.711Z,3.93
2018-09-21T16:00:03.316Z,1.27
2018-09-21T16:02:31.777Z,3.20
2018-09-21T16:05:00.451Z,1.93
2018-09-21T16:07:28.923Z,2.73
2018-09-21T16:09:57.336Z,2.30
2018-09-21T16:12:25.875Z,4.20
2018-09-21T16:14:54.547Z,8.63
2018-09-21T16:17:23.006Z,1.50
2018-09-21T16:19:51.553Z,4.40
2018-09-21T16:22:20.097Z,2.13
2018-09-21T16:24:48.499Z,2.13
2018-09-21T16:27:16.990Z,3.30
2018-09-21T16:29:45.793Z,3.77
2018-09-21T16:32:14.308Z,3.90
2018-09-21T16:34:42.907Z,7.33
2018-09-21T16:37:11.764Z,2.40
2018-09-21T16:39:40.384Z,1.63
2018-09-21T16:42:08.883Z,2.13
2018-09-21T16:44:37.493Z,2.40
2018-09-21T16:47:06.615Z,2.40
2018-09-21T16:49:35.120Z,1.73
2018-09-21T16:52:03.624Z,3.47
2018-09-21T16:54:33.365Z,3.23
2018-09-21T16:57:01.899Z,1.67
2018-09-21T16:59:30.421Z,0.97
2018-09-21T17:01:58.987Z,2.50
2018-09-21T17:04:27.574Z,2.70
2018-09-21T17:06:56.169Z,6.70
2018-09-21T17:09:24.799Z,4.33
2018-09-21T17:11:53.271Z,2.93
2018-09-21T17:14:21.965Z,2.50
2018-09-21T17:16:50.461Z,1.73
2018-09-21T17:19:18.968Z,7.37
2018-09-21T17:21:47.629Z,1.10
2018-09-21T17:24:16.145Z,3.77
2018-09-21T17:26:44.796Z,1.20
2018-09-21T17:29:13.425Z,3.30
2018-09-21T17:31:41.887Z,8.73
2018-09-21T17:34:10.344Z,1.43
2018-09-21T17:36:39.031Z,4.67
2018-09-21T17:39:11.057Z,3.17
2018-09-21T17:41:39.537Z,4.87
2018-09-21T17:44:08.255Z,2.77
2018-09-21T17:46:36.795Z,1.57
2018-09-21T17:49:05.467Z,1.00
2018-09-21T17:51:34.031Z,2.53
2018-09-21T17:54:03.441Z,3.20
2018-09-21T17:56:32.079Z,1.47
2018-09-21T17:59:00.609Z,3.97
2018-09-21T18:01:29.143Z,1.70
2018-09-21T18:03:57.760Z,1.33
2018-09-21T18:06:26.299Z,2.97
2018-09-21T18:08:54.772Z,2.60
2018-09-21T18:11:23.271Z,4.50
2018-09-21T18:13:51.864Z,2.73
2018-09-21T18:16:20.368Z,2.60
2018-09-21T18:18:49.176Z,3.77
2018-09-21T18:21:17.792Z,4.63
2018-09-21T18:23:46.340Z,5.50
2018-09-21T18:26:14.996Z,1.70
2018-09-21T18:28:43.464Z,1.20
2018-09-21T18:31:12.239Z,2.30
2018-09-21T18:33:40.993Z,1.30
2018-09-21T18:36:09.685Z,0.93
2018-09-21T18:38:38.917Z,1.83
2018-09-21T18:41:07.521Z,1.17
2018-09-21T18:43:36.275Z,1.77
2018-09-21T18:46:04.868Z,2.93
2018-09-21T18:48:33.662Z,2.20
2018-09-21T18:51:02.228Z,3.50
2018-09-21T18:53:30.928Z,1.13
2018-09-21T18:56:00.167Z,2.67
2018-09-21T18:58:28.888Z,1.87
2018-09-21T19:00:57.769Z,1.00
2018-09-21T19:03:26.626Z,1.70
2018-09-21T19:05:55.623Z,0.80
2018-09-21T19:08:24.221Z,1.37
2018-09-21T19:10:53.679Z,6.00
2018-09-21T19:13:22.547Z,1.40
2018-09-21T19:15:51.815Z,1.00
2018-09-21T19:18:20.678Z,3.23
2018-09-21T19:20:49.942Z,3.37
2018-09-21T19:23:18.837Z,1.23
2018-09-21T19:25:47.828Z,1.00
2018-09-21T19:28:16.923Z,1.20
2018-09-21T19:30:46.162Z,1.77
2018-09-21T19:33:15.693Z,3.33
2018-09-21T19:35:44.422Z,3.40
2018-09-21T19:38:13.465Z,0.90
2018-09-21T19:40:43.416Z,3.17
2018-09-21T19:43:12.579Z,0.80
2018-09-21T19:45:41.578Z,3.70
2018-09-21T19:48:10.453Z,1.90
2018-09-21T19:50:39.102Z,1.10
2018-09-21T19:53:07.914Z,1.93
2018-09-21T19:55:38.343Z,1.10
2018-09-21T19:58:08.735Z,4.10
2018-09-21T20:00:39.067Z,3.23
2018-09-21T20:03:07.913Z,1.63
2018-09-21T20:05:36.926Z,9.43
2018-09-21T20:08:05.941Z,1.23
2018-09-21T20:10:35.442Z,1.30
2018-09-21T20:13:04.030Z,12.77
2018-09-21T20:15:32.615Z,1.97
2018-09-21T20:18:02.316Z,1.83
2018-09-21T20:20:31.310Z,5.53
2018-09-21T20:23:00.163Z,1.00
2018-09-21T20:25:28.674Z,8.40
2018-09-21T20:27:57.247Z,4.57
2018-09-21T20:30:31.187Z,1.20
2018-09-21T20:33:04.986Z,2.30
2018-09-21T20:35:33.817Z,4.50
2018-09-21T20:38:02.304Z,2.00
2018-09-21T20:40:30.954Z,1.93
2018-09-21T20:42:59.822Z,1.87
2018-09-21T20:45:28.331Z,1.67
2018-09-21T20:47:56.935Z,4.50
2018-09-21T20:50:25.579Z,3.77
2018-09-21T20:52:54.160Z,2.60
2018-09-21T20:55:23.697Z,12.83
2018-09-21T20:57:52.401Z,3.53
2018-09-21T21:00:20.918Z,4.83
2018-09-21T21:02:49.393Z,1.93
2018-09-21T21:05:18.233Z,2.00
2018-09-21T21:07:46.774Z,3.20
2018-09-21T21:10:15.211Z,1.57
2018-09-21T21:12:43.746Z,0.90
2018-09-21T21:15:12.171Z,5.63
2018-09-21T21:17:40.669Z,0.80
2018-09-21T21:20:09.242Z,2.93
2018-09-21T21:22:37.778Z,5.43
2018-09-21T21:25:06.264Z,2.47
2018-09-21T21:27:35.048Z,2.23
2018-09-21T21:30:03.572Z,3.37
2018-09-21T21:32:31.994Z,3.83
2018-09-21T21:35:00.880Z,4.50
2018-09-21T21:37:29.278Z,0.97
2018-09-21T21:39:57.734Z,2.47
2018-09-21T21:42:26.507Z,2.00
2018-09-21T21:44:55.047Z,2.17
2018-09-21T21:47:23.662Z,1.80
2018-09-21T21:49:52.243Z,4.60
2018-09-21T21:52:20.716Z,7.20
2018-09-21T21:54:49.207Z,4.47
2018-09-21T21:57:17.938Z,6.47
2018-09-21T21:59:46.347Z,2.23
2018-09-21T22:02:14.823Z,2.30
2018-09-21T22:04:43.479Z,4.90
2018-09-21T22:07:12.706Z,1.13
2018-09-21T22:09:41.371Z,4.37
2018-09-21T22:12:15.378Z,2.80
2018-09-21T22:14:43.865Z,2.23
2018-09-21T22:17:12.344Z,2.50
2018-09-21T22:19:40.834Z,1.20
2018-09-21T22:22:09.258Z,5.40
2018-09-21T22:24:37.651Z,1.53
2018-09-21T22:27:06.204Z,6.97
2018-09-21T22:29:34.668Z,4.80
2018-09-21T22:32:03.055Z,1.97
2018-09-21T22:34:31.620Z,3.00
2018-09-21T22:37:00.055Z,3.13
2018-09-21T22:39:28.450Z,2.27
2018-09-21T22:41:56.855Z,1.77
2018-09-21T22:44:25.293Z,2.37
2018-09-21T22:46:53.714Z,5.73
2018-09-21T22:49:23.887Z,2.57
2018-09-21T22:51:52.379Z,1.43
2018-09-21T22:54:20.814Z,3.67
2018-09-21T22:56:49.636Z,0.80
2018-09-21T22:59:18.104Z,3.53
2018-09-21T23:01:46.588Z,2.80
2018-09-21T23:04:15.111Z,6.03
2018-09-21T23:06:43.648Z,1.67
2018-09-21T23:09:13.390Z,3.97
2018-09-21T23:11:42.743Z,9.57
2018-09-21T23:14:11.698Z,6.20
2018-09-21T23:16:40.512Z,1.93
2018-09-21T23:19:09.442Z,4.60
2018-09-21T23:21:37.889Z,3.03
2018-09-21T23:24:06.372Z,2.37
2018-09-21T23:26:34.870Z,6.43
2018-09-21T23:29:03.303Z,3.97
2018-09-21T23:31:31.738Z,5.07
2018-09-21T23:34:00.302Z,7.83
2018-09-21T23:36:28.979Z,6.73
2018-09-21T23:38:57.466Z,4.63
2018-09-21T23:41:25.963Z,0.73
2018-09-21T23:43:54.371Z,15.10
2018-09-21T23:46:22.757Z,2.70
2018-09-21T23:48:51.475Z,1.20
2018-09-21T23:51:20.031Z,2.80
2018-09-21T23:53:48.498Z,5.73
2018-09-21T23:56:17.166Z,1.47
2018-09-21T23:58:45.596Z,2.57
